Time;durP1;ratioP1;P1;durP2;ratioP2;P2;SDS_P1;SDS_P2;PMS_P1;PMS_P2;Temp;Humidity;BMP_temperature;BMP_pressure;BME280_temperature;BME280_humidity;BME280_pressure;Samples;Min_cycle;Max_cycle;Signal;HPM_P1;HPM_P2
2023/11/07 16:12:26;;;;;;;;;0.67;0.67;;;;;23.18;42.27;101221.72;5028256;23;45408;-75
2023/11/07 16:14:51;;;;;;;;;1.67;0.00;;;;;23.13;41.77;101216.97;4968418;28;45959;-78
2023/11/07 16:17:17;;;;;;;;;1.00;1.00;;;;;23.17;42.06;101214.75;4969222;28;45353;-79
2023/11/07 16:19:42;;;;;;;;;1.00;0.00;;;;;23.16;41.78;101211.28;4962183;28;45683;-79
2023/11/07 16:22:07;;;;;;;;;0.33;0.33;;;;;23.19;41.74;101212.75;4957520;28;45936;-79
2023/11/07 16:24:33;;;;;;;;;0.00;0.00;;;;;23.20;41.92;101216.22;4974654;28;45443;-79
2023/11/07 16:27:08;;;;;;;;;1.33;1.33;;;;;23.18;42.32;101221.72;4974559;28;58095;-78
2023/11/07 16:29:37;;;;;;;;;0.00;0.00;;;;;23.19;41.87;101212.75;4971081;28;45433;-79
2023/11/07 16:32:04;;;;;;;;;0.00;0.00;;;;;23.19;42.52;101220.72;4961434;28;45491;-79
2023/11/07 16:34:30;;;;;;;;;1.00;1.00;;;;;23.20;42.16;101216.22;4976419;28;47675;-80
2023/11/07 16:36:56;;;;;;;;;0.00;0.00;;;;;23.20;41.83;101219.72;4976348;28;45408;-79
2023/11/07 16:39:24;;;;;;;;;2.00;0.67;;;;;23.18;42.48;101219.91;4975998;28;45441;-79
2023/11/07 16:41:50;;;;;;;;;0.00;0.00;;;;;23.18;42.47;101221.72;4975923;28;45416;-79
2023/11/07 16:44:15;;;;;;;;;1.33;0.33;;;;;23.17;41.88;101218.25;4969940;28;47246;-79
2023/11/07 16:46:41;;;;;;;;;0.67;0.67;;;;;23.18;41.95;101219.06;4974532;28;45538;-79
2023/11/07 16:49:07;;;;;;;;;0.00;0.00;;;;;23.18;42.09;101225.22;4975786;28;45571;-80
2023/11/07 16:51:33;;;;;;;;;0.00;0.00;;;;;23.17;42.32;101234.16;4976050;28;45553;-80
2023/11/07 16:53:58;;;;;;;;;0.00;0.00;;;;;23.17;42.42;101226.22;4975397;28;46123;-80
2023/11/07 16:56:25;;;;;;;;;0.00;0.00;;;;;23.16;42.07;101231.72;4975728;28;45421;-79
2023/11/07 16:58:50;;;;;;;;;1.00;1.00;;;;;23.13;42.25;101230.25;4975677;28;45416;-80
2023/11/07 17:01:15;;;;;;;;;0.00;0.00;;;;;23.14;41.89;101239.84;4975947;28;45262;-78
2023/11/07 17:03:41;;;;;;;;;1.00;0.00;;;;;23.17;42.36;101241.31;4975777;28;46235;-79
2023/11/07 17:06:08;;;;;;;;;3.00;0.00;;;;;23.13;42.13;101235.53;4975982;28;45448;-79
2023/11/07 17:08:33;;;;;;;;;1.00;0.00;;;;;23.13;42.43;101234.72;4974017;28;45328;-79
2023/11/07 17:11:00;;;;;;;;;0.00;0.00;;;;;23.15;41.76;101238.00;4955919;28;45330;-79
2023/11/07 17:13:25;;;;;;;;;0.00;0.00;;;;;23.15;42.21;101243.31;4975660;28;47264;-79
2023/11/07 17:15:53;;;;;;;;;0.00;0.00;;;;;23.16;41.72;101250.28;4974855;28;46422;-79
2023/11/07 17:18:18;;;;;;;;;0.33;0.33;;;;;23.16;42.18;101251.09;4975585;28;45218;-80
2023/11/07 17:20:45;;;;;;;;;1.00;1.00;;;;;23.14;41.83;101244.31;4973918;28;45215;-78
2023/11/07 17:23:17;;;;;;;;;0.00;0.00;;;;;23.16;42.07;101255.59;4968678;28;47352;-79
2023/11/07 17:25:42;;;;;;;;;0.33;0.00;;;;;23.16;42.34;101252.94;4975626;28;45408;-79
2023/11/07 17:28:09;;;;;;;;;0.00;0.00;;;;;23.15;41.70;101249.47;4974229;28;45373;-79
2023/11/07 17:30:35;;;;;;;;;2.00;0.00;;;;;23.08;41.89;101243.22;4974685;28;45500;-82
2023/11/07 17:33:00;;;;;;;;;0.33;0.00;;;;;23.16;42.25;101256.41;4975380;28;47181;-79
2023/11/07 17:35:26;;;;;;;;;0.67;0.67;;;;;23.15;41.78;101264.56;4971969;28;45426;-78
2023/11/07 17:37:51;;;;;;;;;0.00;0.00;;;;;23.15;41.67;101270.69;4975408;28;45383;-78
2023/11/07 17:40:16;;;;;;;;;1.67;0.00;;;;;23.15;42.20;101259.25;4974541;28;45414;-79
2023/11/07 17:42:44;;;;;;;;;1.00;0.00;;;;;23.16;41.99;101271.53;4971786;28;45509;-78
2023/11/07 17:45:09;;;;;;;;;0.00;0.00;;;;;23.15;41.81;101268.03;4974728;28;45399;-78
2023/11/07 17:47:35;;;;;;;;;1.67;0.00;;;;;23.15;41.83;101260.06;4974419;28;45460;-79
2023/11/07 17:50:01;;;;;;;;;3.00;1.00;;;;;23.15;41.93;101268.03;4974744;28;45594;-79
2023/11/07 17:52:26;;;;;;;;;1.00;1.00;;;;;23.14;41.71;101271.69;4969383;28;45484;-79
2023/11/07 17:54:52;;;;;;;;;1.00;0.00;;;;;23.15;41.96;101280.47;4973949;28;45381;-78
2023/11/07 17:57:17;;;;;;;;;0.00;0.00;;;;;23.15;41.54;101277.81;4974558;28;45286;-78
2023/11/07 17:59:44;;;;;;;;;2.00;0.67;;;;;23.13;42.00;101285.16;4975616;28;45483;-81
2023/11/07 18:02:10;;;;;;;;;0.00;0.00;;;;;23.15;42.01;101291.09;4978371;28;47107;-79
2023/11/07 18:04:36;;;;;;;;;0.00;0.00;;;;;23.14;42.17;101295.56;4977913;28;45382;-78
2023/11/07 18:07:01;;;;;;;;;1.00;1.00;;;;;23.13;41.75;101287.78;4978144;28;45425;-78
2023/11/07 18:09:27;;;;;;;;;0.00;0.00;;;;;23.12;41.84;101292.28;4977864;28;45497;-78
2023/11/07 18:11:52;;;;;;;;;1.00;1.00;;;;;23.13;42.04;101293.09;4977743;28;46413;-79
2023/11/07 18:14:19;;;;;;;;;0.00;0.00;;;;;23.10;42.15;101294.28;4978359;28;45290;-79
2023/11/07 18:16:45;;;;;;;;;0.00;0.00;;;;;23.12;42.02;101297.59;4977895;28;45563;-77
2023/11/07 18:19:10;;;;;;;;;0.00;0.00;;;;;23.10;41.92;101296.09;4978072;28;45337;-78
2023/11/07 18:21:42;;;;;;;;;0.00;0.00;;;;;23.11;42.08;101300.41;4977661;28;46951;-78
2023/11/07 18:24:09;;;;;;;;;0.00;0.00;;;;;23.11;42.20;101301.22;4977960;28;45336;-78
2023/11/07 18:26:34;;;;;;;;;0.00;0.00;;;;;23.12;41.96;101304.72;4977940;28;45372;-79
2023/11/07 18:29:00;;;;;;;;;0.00;0.00;;;;;23.12;41.61;101308.19;4978028;28;45323;-79
2023/11/07 18:31:25;;;;;;;;;1.67;1.00;;;;;23.12;41.71;101310.03;4977307;28;45477;-79
2023/11/07 18:33:50;;;;;;;;;0.00;0.00;;;;;23.06;42.29;101290.31;4977888;28;50580;-78
2023/11/07 18:36:16;;;;;;;;;0.00;0.00;;;;;23.10;41.86;101301.41;4977649;28;45745;-78
2023/11/07 18:38:42;;;;;;;;;0.00;0.00;;;;;23.08;42.00;101296.28;4977780;28;45492;-79
2023/11/07 18:41:07;;;;;;;;;0.00;0.00;;;;;23.10;41.72;101304.91;4977214;28;45805;-79
2023/11/07 18:43:33;;;;;;;;;0.00;0.00;;;;;23.12;41.55;101300.25;4977831;28;45259;-79
2023/11/07 18:45:58;;;;;;;;;0.00;0.00;;;;;23.04;42.14;101290.50;4976603;28;45313;-79
2023/11/07 18:48:24;;;;;;;;;1.00;1.00;;;;;23.12;41.91;101302.88;4977890;28;45521;-78
2023/11/07 18:50:50;;;;;;;;;2.00;0.33;;;;;23.12;42.06;101296.75;4977219;28;46076;-79
2023/11/07 18:53:16;;;;;;;;;0.00;0.00;;;;;23.11;42.01;101308.38;4977317;28;45318;-79
2023/11/07 18:55:41;;;;;;;;;0.00;0.00;;;;;23.12;41.84;101305.53;4976441;28;45275;-79
2023/11/07 18:58:07;;;;;;;;;0.00;0.00;;;;;23.12;41.93;101302.06;4977814;28;45231;-78
2023/11/07 19:00:38;;;;;;;;;0.00;0.00;;;;;23.11;41.57;101298.56;4976924;28;45364;-79
2023/11/07 19:03:04;;;;;;;;;0.00;0.00;;;;;23.07;41.67;101297.28;4978099;28;45483;-78
2023/11/07 19:05:30;;;;;;;;;0.33;0.33;;;;;23.10;41.98;101299.59;4976810;28;45444;-78
2023/11/07 19:07:55;;;;;;;;;0.67;0.67;;;;;23.11;42.04;101300.41;4977051;28;45504;-79
2023/11/07 19:10:21;;;;;;;;;1.00;1.00;;;;;23.11;42.07;101303.06;4976701;28;49065;-79
2023/11/07 19:12:46;;;;;;;;;0.00;0.00;;;;;23.09;41.81;101308.53;4971841;28;45329;-79
2023/11/07 19:15:14;;;;;;;;;0.00;0.00;;;;;23.11;41.80;101313.69;4977085;28;45457;-78
2023/11/07 19:17:40;;;;;;;;;0.67;0.67;;;;;23.07;42.13;101308.72;4977407;28;45664;-79
2023/11/07 19:20:06;;;;;;;;;0.00;0.00;;;;;23.09;41.95;101313.84;4976428;28;47421;-78
2023/11/07 19:22:32;;;;;;;;;2.00;0.33;;;;;23.07;41.89;101308.72;4976942;28;45802;-78
2023/11/07 19:24:58;;;;;;;;;1.00;0.33;;;;;23.10;42.12;101309.38;4976156;28;45235;-78
2023/11/07 19:27:23;;;;;;;;;1.00;1.00;;;;;23.08;41.80;101304.25;4967174;28;45287;-78
2023/11/07 19:29:48;;;;;;;;;0.00;0.00;;;;;23.06;41.71;101311.53;4975487;28;54471;-84
2023/11/07 19:32:14;;;;;;;;;1.00;0.00;;;;;23.10;41.54;101312.03;4977848;28;45339;-82
2023/11/07 19:34:40;;;;;;;;;0.00;0.00;;;;;23.02;41.74;101305.78;4979119;28;45330;-83
2023/11/07 19:37:05;;;;;;;;;2.00;1.00;;;;;23.00;41.73;101296.34;4977400;28;45381;-85
2023/11/07 19:39:31;;;;;;;;;1.00;1.00;;;;;23.13;42.28;101314.34;4977416;28;46244;-85
2023/11/07 19:42:01;;;;;;;;;1.00;1.00;;;;;23.12;41.94;101313.50;4976268;28;45403;-80
2023/11/07 19:44:28;;;;;;;;;1.33;0.00;;;;;23.14;42.44;101311.50;4974048;28;45341;-79
2023/11/07 19:46:54;;;;;;;;;0.00;0.00;;;;;23.17;42.49;101316.47;4977077;28;45325;-82
2023/11/07 19:49:22;;;;;;;;;0.00;0.00;;;;;23.20;42.04;101317.09;4977507;28;45556;-85
2023/11/07 19:51:48;;;;;;;;;1.00;0.00;;;;;23.21;42.46;101316.13;4975718;28;45655;-84
2023/11/07 19:54:17;;;;;;;;;0.67;0.00;;;;;23.22;42.45;101315.91;4977334;28;45413;-80
2023/11/07 19:56:43;;;;;;;;;1.00;0.00;;;;;23.23;42.67;101324.72;4977328;28;45226;-80
2023/11/07 19:59:09;;;;;;;;;0.00;0.00;;;;;23.25;42.47;101328.00;4976899;28;46402;-78
2023/11/07 20:01:34;;;;;;;;;0.00;0.00;;;;;23.23;42.44;101325.56;4976901;28;45270;-83
2023/11/07 20:04:00;;;;;;;;;0.33;0.33;;;;;23.22;42.32;101323.06;4976762;28;45281;-77
2023/11/07 20:06:25;;;;;;;;;0.00;0.00;;;;;23.28;42.38;101322.34;4976738;28;45396;-80
2023/11/07 20:08:51;;;;;;;;;0.00;0.00;;;;;23.28;42.08;101325.00;4974477;28;45362;-80
2023/11/07 20:11:17;;;;;;;;;1.00;0.67;;;;;23.28;42.18;101323.19;4977519;28;45382;-76
2023/11/07 20:13:42;;;;;;;;;0.00;0.00;;;;;23.28;41.99;101327.66;4977261;28;45340;-76
2023/11/07 20:16:08;;;;;;;;;1.00;1.00;;;;;23.27;41.86;101324.19;4977396;28;45413;-80
2023/11/07 20:18:34;;;;;;;;;0.00;0.00;;;;;23.28;41.83;101325.00;4964605;28;46896;-77
2023/11/07 20:21:01;;;;;;;;;1.00;1.00;;;;;23.28;42.10;101333.81;4958019;28;45377;-76
2023/11/07 20:23:26;;;;;;;;;1.33;0.00;;;;;23.27;41.85;101329.50;4976042;28;45338;-76
2023/11/07 20:25:51;;;;;;;;;1.00;1.00;;;;;23.28;42.34;101338.28;4965879;28;45418;-81
2023/11/07 20:28:17;;;;;;;;;2.00;0.00;;;;;23.29;42.08;101334.63;4966063;28;46201;-80
2023/11/07 20:30:42;;;;;;;;;1.00;1.00;;;;;23.29;42.13;101335.44;4967211;28;45501;-74
2023/11/07 20:33:08;;;;;;;;;2.00;1.00;;;;;23.31;42.67;101340.59;4958427;28;45406;-75
2023/11/07 20:35:39;;;;;;;;;0.00;0.00;;;;;23.33;42.40;101332.44;4959318;28;45514;-72
2023/11/07 20:38:07;;;;;;;;;0.33;0.33;;;;;23.32;42.29;101328.13;4966418;28;47249;-73
2023/11/07 20:40:35;;;;;;;;;3.00;2.67;;;;;23.33;42.90;101341.25;4976118;28;45248;-79
2023/11/07 20:43:04;;;;;;;;;4.00;2.00;;;;;23.34;42.87;101340.22;4976665;28;45370;-79
2023/11/07 20:45:32;;;;;;;;;3.00;2.00;;;;;23.34;43.50;101337.56;4957725;28;45315;-83
2023/11/07 20:47:58;;;;;;;;;1.67;1.00;;;;;23.36;43.35;101343.53;4956543;28;46364;-79
2023/11/07 20:50:23;;;;;;;;;4.75;2.00;;;;;23.34;43.74;101342.88;4957281;28;45520;-83
2023/11/07 20:52:49;;;;;;;;;3.00;2.00;;;;;23.37;43.58;101347.00;4957546;28;45473;-78
2023/11/07 20:55:14;;;;;;;;;5.00;2.33;;;;;23.30;43.75;101336.28;4957095;28;45380;-81
2023/11/07 20:57:42;;;;;;;;;2.00;2.00;;;;;23.41;43.43;101358.94;4956977;28;46013;-81
2023/11/07 21:00:08;;;;;;;;;2.00;1.00;;;;;23.38;43.96;101346.00;4957434;28;45411;-77
2023/11/07 21:02:33;;;;;;;;;3.00;1.00;;;;;23.39;44.04;101351.13;4963268;28;45315;-77
2023/11/07 21:04:58;;;;;;;;;2.00;0.67;;;;;23.40;44.25;101352.78;4971476;28;45731;-74
2023/11/07 21:07:26;;;;;;;;;2.33;1.00;;;;;23.37;44.02;101347.84;4973181;28;45523;-74
2023/11/07 21:09:52;;;;;;;;;3.00;1.00;;;;;23.32;44.16;101344.06;4960683;28;45457;-74
2023/11/07 21:12:17;;;;;;;;;2.00;1.00;;;;;23.44;44.31;101361.25;4971160;28;45402;-76
2023/11/07 21:14:43;;;;;;;;;3.67;2.00;;;;;23.37;44.26;101350.50;4972996;28;45481;-76
2023/11/07 21:17:09;;;;;;;;;1.33;1.00;;;;;23.40;44.25;101354.63;4971299;28;45596;-76
2023/11/07 21:19:35;;;;;;;;;2.00;1.00;;;;;23.44;44.59;101365.72;4972781;28;45408;-74
2023/11/07 21:22:02;;;;;;;;;4.67;2.33;;;;;23.39;44.25;101353.78;4975721;28;45333;-73
2023/11/07 21:24:28;;;;;;;;;1.67;1.67;;;;;23.45;44.30;101364.72;4970660;28;45556;-72
2023/11/07 21:26:53;;;;;;;;;3.67;2.00;;;;;23.44;44.18;101355.09;4974784;28;46255;-72
2023/11/07 21:29:19;;;;;;;;;2.00;1.00;;;;;23.44;44.07;101353.28;4990378;28;45392;-73
2023/11/07 21:31:45;;;;;;;;;2.00;1.00;;;;;23.42;44.42;101360.56;4974928;28;45760;-72
2023/11/07 21:34:11;;;;;;;;;2.00;2.00;;;;;23.39;44.04;101355.63;4975288;28;45442;-72
2023/11/07 21:36:38;;;;;;;;;1.67;1.67;;;;;23.33;44.50;101346.56;4978101;28;47424;-73
2023/11/07 21:39:11;;;;;;;;;0.67;0.67;;;;;23.34;44.58;101350.84;4978703;28;45396;-73
2023/11/07 21:41:37;;;;;;;;;2.67;1.33;;;;;23.40;44.48;101358.09;4978763;28;45345;-73
2023/11/07 21:44:03;;;;;;;;;1.00;1.00;;;;;23.40;44.26;101352.78;4976845;28;45421;-73
2023/11/07 21:46:29;;;;;;;;;3.67;1.67;;;;;23.43;44.60;101364.91;4978871;28;46460;-73
2023/11/07 21:48:54;;;;;;;;;3.00;1.67;;;;;23.44;44.06;101361.25;4976120;28;45489;-73
2023/11/07 21:51:19;;;;;;;;;2.00;1.00;;;;;23.44;44.26;101360.41;4978947;28;45207;-73
2023/11/07 21:53:45;;;;;;;;;3.00;3.00;;;;;23.36;44.64;101346.19;4978365;28;45293;-73
2023/11/07 21:56:12;;;;;;;;;2.33;2.00;;;;;23.35;44.43;101339.22;4979176;28;45372;-73
2023/11/07 21:58:40;;;;;;;;;2.33;1.00;;;;;23.45;44.48;101357.56;4967339;28;45389;-73
2023/11/07 22:01:06;;;;;;;;;1.00;1.00;;;;;23.46;44.43;101359.22;4978559;28;45452;-73
2023/11/07 22:03:32;;;;;;;;;3.67;0.67;;;;;23.46;44.21;101348.63;4977732;28;45435;-74
2023/11/07 22:05:58;;;;;;;;;2.00;2.00;;;;;23.44;44.62;101350.63;4978946;28;45977;-73
2023/11/07 22:08:25;;;;;;;;;2.67;1.33;;;;;23.45;44.20;101349.59;4970860;28;45535;-73
2023/11/07 22:10:51;;;;;;;;;2.67;2.67;;;;;23.42;44.93;101341.19;4977733;28;45405;-73
2023/11/07 22:13:17;;;;;;;;;1.00;1.00;;;;;23.36;44.81;101326.78;4977142;28;45538;-74
2023/11/07 22:15:42;;;;;;;;;1.00;1.00;;;;;23.45;44.40;101349.59;4970309;28;45390;-73
2023/11/07 22:18:11;;;;;;;;;1.00;1.00;;;;;23.44;44.59;101353.28;4973809;28;45424;-71
2023/11/07 22:20:38;;;;;;;;;1.00;1.00;;;;;23.42;44.37;101351.81;4978736;28;45366;-73
2023/11/07 22:23:03;;;;;;;;;4.00;2.00;;;;;23.44;44.64;101349.78;4964025;28;45249;-72
2023/11/07 22:25:29;;;;;;;;;1.00;1.00;;;;;23.43;44.77;101356.94;4959897;28;45398;-73
2023/11/07 22:27:55;;;;;;;;;1.00;1.00;;;;;23.44;44.43;101357.75;4976066;28;45485;-72
2023/11/07 22:30:21;;;;;;;;;2.33;1.00;;;;;23.42;44.57;101352.59;4978304;28;45185;-72
2023/11/07 22:32:46;;;;;;;;;3.00;2.00;;;;;23.42;44.30;101352.59;4978188;28;45544;-72
2023/11/07 22:35:12;;;;;;;;;1.67;1.00;;;;;23.39;44.69;101353.78;4974786;28;47170;-71
2023/11/07 22:37:38;;;;;;;;;3.00;1.33;;;;;23.42;44.23;101360.56;4959692;28;45984;-80
